Time;durP1;ratioP1;P1;durP2;ratioP2;P2;SDS_P1;SDS_P2;PMS_P1;PMS_P2;Temp;Humidity;BMP_temperature;BMP_pressure;BME280_temperature;BME280_humidity;BME280_pressure;Samples;Min_cycle;Max_cycle;Signal;HPM_P1;HPM_P2
2021/11/26 00:02:15;;;;;;;22.58;14.02;;;;;;;;;;5075282;28;20187;-69
2021/11/26 00:04:41;;;;;;;20.60;13.55;;;;;;;;;;5093101;28;20024;-70
2021/11/26 00:07:08;;;;;;;18.98;13.90;;;;;;;;;;5092924;28;20032;-69
2021/11/26 00:09:34;;;;;;;23.73;13.45;;;;;;;;;;5099517;28;20039;-68
2021/11/26 00:12:01;;;;;;;20.65;13.95;;;;;;;;;;5113254;28;20080;-71
2021/11/26 00:14:30;;;;;;;20.88;14.00;;;;;;;;;;5095121;28;20537;-69
2021/11/26 00:16:57;;;;;;;22.88;14.40;;;;;;;;;;5112918;28;20023;-67
2021/11/26 00:19:24;;;;;;;25.17;15.63;;;;;;;;;;5112788;28;20015;-66
2021/11/26 00:21:51;;;;;;;20.17;13.63;;;;;;;;;;5113094;28;20016;-66
2021/11/26 00:24:17;;;;;;;19.92;13.23;;;;;;;;;;5112894;28;20141;-69
2021/11/26 00:26:44;;;;;;;23.27;14.07;;;;;;;;;;5112925;28;20047;-69
2021/11/26 00:29:10;;;;;;;17.42;12.05;;;;;;;;;;5112187;28;20104;-66
2021/11/26 00:31:37;;;;;;;22.73;13.00;;;;;;;;;;5112555;28;20489;-70
2021/11/26 00:34:04;;;;;;;23.60;13.95;;;;;;;;;;5094409;28;20024;-70
2021/11/26 00:36:30;;;;;;;20.58;12.98;;;;;;;;;;5113034;28;20114;-71
2021/11/26 00:38:56;;;;;;;18.17;12.98;;;;;;;;;;5113131;28;20094;-67
2021/11/26 00:41:22;;;;;;;21.52;14.57;;;;;;;;;;5095110;28;20110;-65
2021/11/26 00:43:48;;;;;;;21.55;13.93;;;;;;;;;;5095172;28;20498;-70
2021/11/26 00:46:15;;;;;;;19.25;13.80;;;;;;;;;;5082610;28;20025;-72
2021/11/26 00:48:41;;;;;;;20.90;15.10;;;;;;;;;;5072232;28;20105;-71
2021/11/26 00:51:07;;;;;;;19.15;12.93;;;;;;;;;;5072205;28;20051;-71
2021/11/26 00:53:33;;;;;;;18.33;12.57;;;;;;;;;;5072390;28;20046;-68
2021/11/26 00:56:00;;;;;;;20.35;13.40;;;;;;;;;;5072182;28;20025;-69
2021/11/26 00:58:26;;;;;;;18.27;11.90;;;;;;;;;;5071986;28;20032;-64
2021/11/26 01:00:52;;;;;;;19.00;12.60;;;;;;;;;;5072234;28;20023;-68
2021/11/26 01:03:18;;;;;;;19.08;12.77;;;;;;;;;;5072361;28;20467;-66
2021/11/26 01:05:44;;;;;;;17.38;11.95;;;;;;;;;;5072277;28;20025;-69
2021/11/26 01:08:10;;;;;;;21.80;12.98;;;;;;;;;;5072032;28;20028;-68
2021/11/26 01:10:36;;;;;;;19.80;13.55;;;;;;;;;;5072214;28;20021;-67
2021/11/26 01:13:03;;;;;;;19.42;13.05;;;;;;;;;;5072264;28;20052;-66
2021/11/26 01:15:30;;;;;;;20.50;13.82;;;;;;;;;;5072057;28;20032;-68
2021/11/26 01:17:56;;;;;;;21.17;14.48;;;;;;;;;;5072003;28;20513;-66
2021/11/26 01:20:24;;;;;;;24.15;15.45;;;;;;;;;;5072051;28;20108;-68
2021/11/26 01:22:51;;;;;;;20.92;13.50;;;;;;;;;;5072030;28;20446;-68
2021/11/26 01:25:17;;;;;;;18.40;12.50;;;;;;;;;;5072074;28;20029;-67
2021/11/26 01:27:44;;;;;;;22.15;14.05;;;;;;;;;;5071905;28;20016;-66
2021/11/26 01:30:15;;;;;;;18.92;12.73;;;;;;;;;;5071921;28;20056;-68
2021/11/26 01:32:41;;;;;;;18.83;12.85;;;;;;;;;;5071964;28;20016;-67
2021/11/26 01:35:08;;;;;;;18.42;12.25;;;;;;;;;;5070650;28;20059;-64
2021/11/26 01:37:34;;;;;;;18.35;12.23;;;;;;;;;;5072056;28;20104;-68
2021/11/26 01:40:00;;;;;;;20.70;14.13;;;;;;;;;;5072120;28;20043;-70
2021/11/26 01:42:26;;;;;;;16.08;11.40;;;;;;;;;;5089826;28;20127;-65
2021/11/26 01:44:52;;;;;;;18.33;12.90;;;;;;;;;;5116223;28;20019;-66
2021/11/26 01:47:18;;;;;;;20.55;13.70;;;;;;;;;;5116120;28;20360;-67
2021/11/26 01:49:44;;;;;;;18.95;13.63;;;;;;;;;;5116145;28;20039;-70
2021/11/26 01:52:10;;;;;;;18.83;13.30;;;;;;;;;;5116297;28;20071;-72
2021/11/26 01:54:36;;;;;;;22.13;13.98;;;;;;;;;;5116057;28;20127;-73
2021/11/26 01:57:02;;;;;;;17.42;12.57;;;;;;;;;;5115736;28;20016;-66
2021/11/26 01:59:31;;;;;;;18.23;12.45;;;;;;;;;;5115885;28;20026;-65
2021/11/26 02:01:57;;;;;;;20.60;12.57;;;;;;;;;;5116027;28;20089;-68
2021/11/26 02:04:23;;;;;;;21.27;12.77;;;;;;;;;;5115941;28;20442;-72
2021/11/26 02:06:49;;;;;;;17.55;12.27;;;;;;;;;;5115932;28;20027;-70
2021/11/26 02:09:15;;;;;;;16.23;11.35;;;;;;;;;;5100276;28;20490;-68
2021/11/26 02:11:41;;;;;;;18.15;12.90;;;;;;;;;;5077329;28;20024;-72
2021/11/26 02:14:07;;;;;;;34.20;11.52;;;;;;;;;;5095555;28;20065;-71
2021/11/26 02:16:45;;;;;;;19.17;12.50;;;;;;;;;;5076796;28;20478;-73
2021/11/26 02:19:12;;;;;;;21.35;13.15;;;;;;;;;;5094820;28;20035;-68
2021/11/26 02:21:38;;;;;;;20.95;13.35;;;;;;;;;;5094835;28;20020;-70
2021/11/26 02:24:05;;;;;;;19.88;13.80;;;;;;;;;;5095443;28;20032;-71
2021/11/26 02:26:34;;;;;;;17.48;12.50;;;;;;;;;;5077118;28;20109;-71
2021/11/26 02:29:00;;;;;;;22.38;13.20;;;;;;;;;;5095015;28;20171;-69
2021/11/26 02:31:27;;;;;;;19.38;12.30;;;;;;;;;;5094922;28;20031;-66
2021/11/26 02:33:53;;;;;;;18.52;13.02;;;;;;;;;;5094671;28;20536;-65
2021/11/26 02:36:19;;;;;;;18.80;12.25;;;;;;;;;;5094769;28;20047;-69
2021/11/26 02:38:45;;;;;;;20.75;13.90;;;;;;;;;;5094737;28;20062;-68
2021/11/26 02:41:11;;;;;;;18.73;11.77;;;;;;;;;;5099388;28;20494;-69
2021/11/26 02:43:37;;;;;;;18.38;12.15;;;;;;;;;;5094363;28;20051;-71
2021/11/26 02:46:03;;;;;;;19.25;12.82;;;;;;;;;;5076311;28;20532;-69
2021/11/26 02:48:29;;;;;;;16.05;11.40;;;;;;;;;;5076120;28;20119;-70
2021/11/26 02:50:55;;;;;;;18.73;13.38;;;;;;;;;;5094779;28;20081;-68
2021/11/26 02:53:21;;;;;;;20.20;13.27;;;;;;;;;;5092902;28;20494;-63
2021/11/26 02:55:49;;;;;;;18.60;12.90;;;;;;;;;;5098053;28;20466;-67
2021/11/26 02:58:16;;;;;;;20.05;13.02;;;;;;;;;;5076432;28;20020;-66
2021/11/26 03:00:44;;;;;;;19.60;13.25;;;;;;;;;;5093845;28;20479;-67
2021/11/26 03:03:10;;;;;;;18.48;12.63;;;;;;;;;;5093913;28;20062;-70
2021/11/26 03:05:36;;;;;;;16.90;11.32;;;;;;;;;;5094055;28;20486;-63
2021/11/26 03:08:03;;;;;;;18.92;12.68;;;;;;;;;;5093621;28;20020;-70
2021/11/26 03:10:29;;;;;;;16.35;11.88;;;;;;;;;;5075530;28;20020;-65
2021/11/26 03:12:57;;;;;;;16.00;10.80;;;;;;;;;;5093675;28;20028;-65
2021/11/26 03:15:24;;;;;;;17.13;11.65;;;;;;;;;;5093608;28;20020;-67
2021/11/26 03:17:51;;;;;;;17.20;12.40;;;;;;;;;;5094265;28;20085;-74
2021/11/26 03:20:17;;;;;;;18.50;12.68;;;;;;;;;;5094268;28;20016;-67
2021/11/26 03:22:43;;;;;;;18.17;12.77;;;;;;;;;;5094247;28;20056;-70
2021/11/26 03:25:10;;;;;;;19.50;12.98;;;;;;;;;;5094266;28;20027;-71
2021/11/26 03:27:37;;;;;;;21.23;13.48;;;;;;;;;;5075988;28;20437;-68
2021/11/26 03:30:04;;;;;;;17.55;12.18;;;;;;;;;;5094118;28;20089;-72
2021/11/26 03:32:30;;;;;;;20.02;12.73;;;;;;;;;;5093985;28;20039;-67
2021/11/26 03:34:56;;;;;;;18.90;11.73;;;;;;;;;;5093995;28;20445;-72
2021/11/26 03:37:22;;;;;;;20.27;11.75;;;;;;;;;;5094009;28;20044;-70
2021/11/26 03:39:48;;;;;;;15.52;10.68;;;;;;;;;;5093678;28;20082;-69
2021/11/26 03:42:14;;;;;;;17.13;10.40;;;;;;;;;;5093661;28;20048;-71
2021/11/26 03:44:40;;;;;;;15.07;10.48;;;;;;;;;;5093748;28;20023;-69
2021/11/26 03:47:06;;;;;;;15.85;12.10;;;;;;;;;;5093702;28;20024;-71
2021/11/26 03:49:32;;;;;;;19.55;12.63;;;;;;;;;;5093590;28;20074;-70
2021/11/26 03:51:58;;;;;;;15.27;10.93;;;;;;;;;;5093344;28;20027;-71
2021/11/26 03:54:24;;;;;;;18.95;12.30;;;;;;;;;;5075425;28;20031;-67
2021/11/26 03:56:51;;;;;;;18.90;12.27;;;;;;;;;;5093179;28;20028;-68
2021/11/26 03:59:17;;;;;;;16.75;12.13;;;;;;;;;;5092774;28;20103;-69
2021/11/26 04:01:43;;;;;;;18.35;11.93;;;;;;;;;;5093382;28;20016;-70
2021/11/26 04:04:09;;;;;;;15.50;11.18;;;;;;;;;;5093098;28;20090;-69
2021/11/26 04:06:35;;;;;;;17.38;11.88;;;;;;;;;;5093465;28;20106;-68
2021/11/26 04:09:01;;;;;;;16.00;10.63;;;;;;;;;;5074937;28;20081;-67
2021/11/26 04:11:27;;;;;;;17.20;11.60;;;;;;;;;;5093329;28;20027;-72
2021/11/26 04:13:53;;;;;;;15.38;11.10;;;;;;;;;;5093330;28;20050;-71
2021/11/26 04:16:20;;;;;;;18.73;13.00;;;;;;;;;;5093202;28;20050;-66
2021/11/26 04:18:46;;;;;;;15.65;10.90;;;;;;;;;;5092982;28;20059;-72
2021/11/26 04:21:13;;;;;;;15.35;9.82;;;;;;;;;;5093099;28;20020;-71
2021/11/26 04:23:39;;;;;;;16.63;10.73;;;;;;;;;;5093116;28;20023;-71
2021/11/26 04:26:05;;;;;;;16.27;10.07;;;;;;;;;;5093163;28;20031;-73
2021/11/26 04:28:31;;;;;;;19.60;11.70;;;;;;;;;;5092950;28;20028;-70
2021/11/26 04:30:59;;;;;;;18.90;11.60;;;;;;;;;;5092860;28;20046;-68
2021/11/26 04:33:26;;;;;;;17.02;11.13;;;;;;;;;;5074227;28;20027;-70
2021/11/26 04:35:52;;;;;;;17.55;10.77;;;;;;;;;;5074272;28;20020;-71
2021/11/26 04:38:18;;;;;;;15.40;10.23;;;;;;;;;;5074260;28;20493;-65
2021/11/26 04:40:44;;;;;;;15.13;10.75;;;;;;;;;;5074257;28;20023;-69
2021/11/26 04:43:11;;;;;;;15.23;9.93;;;;;;;;;;5092675;28;20048;-67
2021/11/26 04:45:37;;;;;;;17.02;10.43;;;;;;;;;;5074331;28;20027;-71
2021/11/26 04:48:04;;;;;;;15.60;10.27;;;;;;;;;;5112552;28;20561;-71
2021/11/26 04:50:30;;;;;;;13.02;8.45;;;;;;;;;;5113009;28;20047;-71
2021/11/26 04:52:56;;;;;;;17.27;10.07;;;;;;;;;;5094574;28;20102;-69
2021/11/26 04:55:22;;;;;;;16.77;10.43;;;;;;;;;;5112921;28;20024;-71
2021/11/26 04:57:48;;;;;;;15.93;10.25;;;;;;;;;;5109898;28;20020;-68
2021/11/26 05:00:16;;;;;;;15.15;10.40;;;;;;;;;;5111990;28;20094;-72
2021/11/26 05:02:43;;;;;;;14.60;10.02;;;;;;;;;;5092455;28;20016;-69
2021/11/26 05:05:09;;;;;;;13.77;9.35;;;;;;;;;;5092339;28;20383;-68
2021/11/26 05:07:35;;;;;;;15.55;10.05;;;;;;;;;;5092453;28;20032;-74
2021/11/26 05:10:03;;;;;;;14.88;9.75;;;;;;;;;;5092184;28;20031;-70
2021/11/26 05:12:34;;;;;;;12.75;9.15;;;;;;;;;;5092290;28;20020;-73
2021/11/26 05:15:00;;;;;;;13.45;9.43;;;;;;;;;;5091796;28;20022;-72
2021/11/26 05:17:26;;;;;;;16.00;10.77;;;;;;;;;;5091638;28;20023;-65
2021/11/26 05:19:52;;;;;;;15.40;9.75;;;;;;;;;;5092310;28;20044;-70
2021/11/26 05:22:18;;;;;;;14.88;9.93;;;;;;;;;;5092177;28;20024;-71
2021/11/26 05:24:44;;;;;;;13.95;9.20;;;;;;;;;;5074059;28;20020;-65
2021/11/26 05:27:10;;;;;;;13.38;8.25;;;;;;;;;;5092256;28;20028;-72
2021/11/26 05:29:37;;;;;;;16.40;8.70;;;;;;;;;;5073847;28;20528;-75
2021/11/26 05:32:03;;;;;;;14.32;9.30;;;;;;;;;;5092221;28;20051;-65
2021/11/26 05:34:29;;;;;;;16.15;9.90;;;;;;;;;;5106947;28;20016;-65
2021/11/26 05:36:55;;;;;;;14.68;8.57;;;;;;;;;;5112393;28;20023;-69
2021/11/26 05:39:21;;;;;;;23.60;9.65;;;;;;;;;;5112165;28;20020;-66
2021/11/26 05:41:47;;;;;;;19.50;9.95;;;;;;;;;;5112270;28;20023;-66
2021/11/26 05:44:13;;;;;;;17.67;8.98;;;;;;;;;;5106291;28;20118;-67
2021/11/26 05:46:39;;;;;;;16.38;9.85;;;;;;;;;;5112240;28;20019;-69
2021/11/26 05:49:06;;;;;;;17.63;10.55;;;;;;;;;;5093808;28;20438;-68
2021/11/26 05:51:32;;;;;;;23.15;12.45;;;;;;;;;;5094090;28;20023;-69
2021/11/26 05:53:58;;;;;;;19.95;9.70;;;;;;;;;;5112358;28;20057;-71
2021/11/26 05:56:24;;;;;;;19.92;9.45;;;;;;;;;;5093872;28;20030;-72
2021/11/26 05:58:50;;;;;;;15.48;10.20;;;;;;;;;;5112067;28;20520;-72
2021/11/26 06:01:16;;;;;;;16.75;10.13;;;;;;;;;;5111940;28;20024;-69
2021/11/26 06:03:42;;;;;;;17.80;9.45;;;;;;;;;;5093961;28;20028;-67
2021/11/26 06:06:08;;;;;;;18.42;8.65;;;;;;;;;;5093359;28;21565;-70
2021/11/26 06:08:34;;;;;;;19.38;10.93;;;;;;;;;;5093284;28;20032;-65
2021/11/26 06:11:00;;;;;;;14.52;8.65;;;;;;;;;;5111746;28;20054;-73
2021/11/26 06:13:26;;;;;;;17.75;9.40;;;;;;;;;;5111987;28;20020;-67
2021/11/26 06:15:52;;;;;;;14.65;8.70;;;;;;;;;;5110990;28;20069;-70
2021/11/26 06:18:18;;;;;;;17.55;9.65;;;;;;;;;;5091455;28;20053;-67
2021/11/26 06:20:44;;;;;;;22.63;9.20;;;;;;;;;;5110096;28;20020;-69
2021/11/26 06:23:10;;;;;;;17.55;9.18;;;;;;;;;;5109931;28;20027;-69
2021/11/26 06:25:37;;;;;;;15.23;8.75;;;;;;;;;;5091640;28;20046;-73
2021/11/26 06:28:03;;;;;;;22.38;9.05;;;;;;;;;;5111943;28;20020;-70
2021/11/26 06:30:29;;;;;;;14.02;9.23;;;;;;;;;;5108078;27;20099;-73
2021/11/26 06:32:55;;;;;;;18.30;9.70;;;;;;;;;;5099498;28;20047;-74
2021/11/26 06:35:24;;;;;;;12.68;8.32;;;;;;;;;;5122397;27;20019;-73
2021/11/26 06:37:51;;;;;;;16.48;7.80;;;;;;;;;;5094595;28;20024;-73
2021/11/26 06:40:17;;;;;;;15.43;8.45;;;;;;;;;;5102568;27;20517;-71
2021/11/26 06:42:44;;;;;;;13.40;8.25;;;;;;;;;;5134244;27;20054;-73
2021/11/26 06:45:10;;;;;;;11.25;7.40;;;;;;;;;;5134504;27;20451;-75
2021/11/26 06:47:36;;;;;;;18.05;9.18;;;;;;;;;;5119555;27;20020;-69
2021/11/26 06:50:04;;;;;;;13.82;7.68;;;;;;;;;;5093619;28;20124;-70
2021/11/26 06:52:30;;;;;;;15.27;7.38;;;;;;;;;;5093481;28;20025;-75
2021/11/26 06:54:56;;;;;;;13.15;8.23;;;;;;;;;;5093269;28;20088;-74
2021/11/26 06:57:22;;;;;;;13.45;8.10;;;;;;;;;;5094402;28;20020;-74
2021/11/26 06:59:48;;;;;;;16.95;7.97;;;;;;;;;;5112982;28;20027;-73
2021/11/26 07:02:14;;;;;;;13.95;8.18;;;;;;;;;;5095007;28;20024;-74
2021/11/26 07:04:43;;;;;;;16.23;8.65;;;;;;;;;;5105643;28;20475;-73
2021/11/26 07:07:09;;;;;;;15.35;8.27;;;;;;;;;;5092862;28;20124;-76
2021/11/26 07:09:36;;;;;;;13.25;8.43;;;;;;;;;;5092891;28;20028;-73
2021/11/26 07:12:03;;;;;;;12.90;7.85;;;;;;;;;;5074819;28;20557;-69
2021/11/26 07:14:29;;;;;;;12.18;8.30;;;;;;;;;;5074604;28;20043;-71
2021/11/26 07:16:55;;;;;;;13.10;7.50;;;;;;;;;;5074574;28;20012;-71
2021/11/26 07:19:21;;;;;;;15.73;9.15;;;;;;;;;;5092620;28;20111;-67
2021/11/26 07:21:47;;;;;;;14.05;8.43;;;;;;;;;;5093231;28;20020;-74
2021/11/26 07:24:13;;;;;;;14.63;7.97;;;;;;;;;;5108864;28;20024;-71
2021/11/26 07:26:39;;;;;;;10.10;6.60;;;;;;;;;;5074491;28;20025;-71
2021/11/26 07:29:05;;;;;;;10.80;7.53;;;;;;;;;;5092335;28;20063;-69
2021/11/26 07:31:31;;;;;;;12.65;7.68;;;;;;;;;;5092197;28;20022;-67
2021/11/26 07:33:57;;;;;;;11.48;7.75;;;;;;;;;;5092056;28;20028;-70
2021/11/26 07:36:23;;;;;;;13.82;8.32;;;;;;;;;;5092045;28;20024;-67
2021/11/26 07:38:49;;;;;;;13.05;8.05;;;;;;;;;;5088178;28;20399;-76
2021/11/26 07:41:16;;;;;;;12.10;7.53;;;;;;;;;;5113115;28;20019;-74
2021/11/26 07:43:42;;;;;;;13.25;8.23;;;;;;;;;;5112498;28;20616;-74
2021/11/26 07:46:08;;;;;;;12.88;7.68;;;;;;;;;;5112625;28;20028;-72
2021/11/26 07:48:34;;;;;;;14.35;8.40;;;;;;;;;;5112399;28;20491;-77
2021/11/26 07:51:00;;;;;;;12.70;7.63;;;;;;;;;;5112446;28;20103;-72
2021/11/26 07:53:26;;;;;;;12.35;8.05;;;;;;;;;;5112271;28;20060;-75
2021/11/26 07:55:52;;;;;;;13.93;8.20;;;;;;;;;;5111194;28;20032;-73
2021/11/26 07:58:18;;;;;;;12.18;7.05;;;;;;;;;;5093563;28;20122;-74
2021/11/26 08:00:44;;;;;;;12.60;7.57;;;;;;;;;;5080043;28;20085;-73
2021/11/26 08:03:12;;;;;;;12.80;7.97;;;;;;;;;;5111922;28;20031;-73
2021/11/26 08:05:38;;;;;;;13.30;7.70;;;;;;;;;;5111703;28;20088;-73
2021/11/26 08:08:09;;;;;;;12.77;8.13;;;;;;;;;;5111373;28;20095;-71
2021/11/26 08:10:36;;;;;;;13.20;7.55;;;;;;;;;;5111828;28;20019;-71
2021/11/26 08:13:02;;;;;;;12.48;7.57;;;;;;;;;;5082595;28;20020;-73
2021/11/26 08:15:30;;;;;;;11.25;7.20;;;;;;;;;;5099503;28;20077;-74
2021/11/26 08:17:56;;;;;;;14.65;7.28;;;;;;;;;;5108771;28;20020;-74
2021/11/26 08:20:22;;;;;;;13.35;7.70;;;;;;;;;;5110556;28;20382;-72
2021/11/26 08:22:49;;;;;;;12.18;7.35;;;;;;;;;;5111342;28;20024;-70
2021/11/26 08:25:16;;;;;;;13.85;8.90;;;;;;;;;;5103499;28;20012;-70
2021/11/26 08:27:42;;;;;;;12.13;7.43;;;;;;;;;;5091595;28;20147;-68
2021/11/26 08:30:09;;;;;;;11.98;7.55;;;;;;;;;;5091924;28;20043;-70
2021/11/26 08:32:35;;;;;;;10.70;6.95;;;;;;;;;;5091673;28;20058;-71
2021/11/26 08:35:01;;;;;;;12.55;7.72;;;;;;;;;;5094253;28;20038;-76
2021/11/26 08:37:27;;;;;;;11.45;7.38;;;;;;;;;;5107095;28;20016;-76
2021/11/26 08:39:53;;;;;;;12.00;6.88;;;;;;;;;;5073342;28;20020;-76
2021/11/26 08:42:19;;;;;;;12.88;7.00;;;;;;;;;;5091283;28;20074;-72
2021/11/26 08:44:45;;;;;;;15.10;7.80;;;;;;;;;;5101910;28;20023;-66
2021/11/26 08:47:11;;;;;;;12.27;6.47;;;;;;;;;;5111422;28;20065;-69
2021/11/26 08:49:37;;;;;;;11.98;7.82;;;;;;;;;;5092920;28;20041;-65
2021/11/26 08:52:03;;;;;;;10.82;7.13;;;;;;;;;;5111261;28;20020;-71
2021/11/26 08:54:30;;;;;;;11.07;7.50;;;;;;;;;;5111243;28;20030;-71
2021/11/26 08:56:56;;;;;;;12.95;8.27;;;;;;;;;;5111111;28;20020;-67
2021/11/26 08:59:26;;;;;;;14.73;8.43;;;;;;;;;;5093218;28;20114;-68
2021/11/26 09:01:53;;;;;;;15.65;8.23;;;;;;;;;;5110416;28;20042;-72
2021/11/26 09:04:20;;;;;;;15.73;8.27;;;;;;;;;;5109168;28;20076;-66
2021/11/26 09:06:48;;;;;;;12.80;8.05;;;;;;;;;;5106129;28;20035;-71
2021/11/26 09:09:14;;;;;;;13.63;7.72;;;;;;;;;;5110929;28;20110;-70
2021/11/26 09:11:40;;;;;;;9.98;6.60;;;;;;;;;;5111113;28;20028;-72
2021/11/26 09:14:06;;;;;;;11.77;7.28;;;;;;;;;;5111008;28;20390;-73
2021/11/26 09:16:33;;;;;;;11.18;6.68;;;;;;;;;;5111232;28;20043;-66
2021/11/26 09:18:59;;;;;;;11.50;7.43;;;;;;;;;;5111129;28;20020;-67
2021/11/26 09:21:25;;;;;;;10.38;7.00;;;;;;;;;;5092298;28;20053;-72
2021/11/26 09:23:51;;;;;;;11.40;7.45;;;;;;;;;;5086239;28;20028;-69
2021/11/26 09:26:17;;;;;;;12.57;7.32;;;;;;;;;;5090615;28;20464;-64
2021/11/26 09:28:43;;;;;;;12.52;7.53;;;;;;;;;;5083564;28;20122;-64
2021/11/26 09:31:10;;;;;;;13.18;6.80;;;;;;;;;;5092727;28;20374;-66
2021/11/26 09:33:36;;;;;;;12.25;6.45;;;;;;;;;;5110868;28;20435;-64
2021/11/26 09:36:05;;;;;;;11.57;6.75;;;;;;;;;;5111190;28;20386;-70
2021/11/26 09:38:35;;;;;;;10.20;6.05;;;;;;;;;;5124515;27;20108;-70
2021/11/26 09:41:02;;;;;;;10.07;6.53;;;;;;;;;;5106632;27;20031;-70
2021/11/26 09:43:29;;;;;;;10.68;6.63;;;;;;;;;;5110968;28;20051;-66
2021/11/26 09:45:55;;;;;;;9.88;6.65;;;;;;;;;;5111370;28;20027;-71
2021/11/26 09:48:22;;;;;;;11.15;6.50;;;;;;;;;;5111045;28;20031;-70
2021/11/26 09:50:48;;;;;;;9.85;6.35;;;;;;;;;;5111242;28;20024;-70
2021/11/26 09:53:20;;;;;;;10.18;6.70;;;;;;;;;;5111213;28;20072;-70
2021/11/26 09:55:48;;;;;;;13.38;6.32;;;;;;;;;;5111170;28;20020;-71
2021/11/26 09:58:15;;;;;;;10.02;6.68;;;;;;;;;;5099080;28;20024;-69
2021/11/26 10:00:42;;;;;;;9.77;5.68;;;;;;;;;;5072755;28;20024;-69
2021/11/26 10:03:08;;;;;;;9.82;6.45;;;;;;;;;;5093451;28;20586;-69
2021/11/26 10:05:35;;;;;;;10.43;5.68;;;;;;;;;;5094498;28;20024;-69
2021/11/26 10:08:01;;;;;;;14.77;5.88;;;;;;;;;;5094721;28;20198;-70
2021/11/26 10:10:32;;;;;;;12.30;6.50;;;;;;;;;;5094469;28;20036;-71
2021/11/26 10:12:58;;;;;;;12.95;6.70;;;;;;;;;;5094451;28;20070;-68
2021/11/26 10:15:31;;;;;;;14.07;6.20;;;;;;;;;;5094595;28;20095;-67
2021/11/26 10:18:08;;;;;;;11.77;6.20;;;;;;;;;;5094508;28;20028;-68
2021/11/26 10:20:34;;;;;;;12.70;6.28;;;;;;;;;;5094174;28;20056;-71
2021/11/26 10:23:00;;;;;;;11.43;6.32;;;;;;;;;;5093698;28;20016;-69
2021/11/26 10:25:26;;;;;;;18.52;6.55;;;;;;;;;;5103384;28;20019;-71
2021/11/26 10:27:55;;;;;;;16.85;6.63;;;;;;;;;;5110527;28;20108;-69
2021/11/26 10:30:28;;;;;;;11.25;6.18;;;;;;;;;;5113704;28;20034;-71
2021/11/26 10:32:55;;;;;;;12.80;6.85;;;;;;;;;;5113673;28;20024;-67
2021/11/26 10:35:21;;;;;;;10.20;6.07;;;;;;;;;;5095510;28;20050;-74
2021/11/26 10:38:01;;;;;;;13.75;6.70;;;;;;;;;;5113647;28;20020;-67
2021/11/26 10:40:27;;;;;;;19.67;6.30;;;;;;;;;;5113138;28;20031;-68
2021/11/26 10:42:55;;;;;;;16.55;6.22;;;;;;;;;;5113287;28;20040;-63
2021/11/26 10:51:03;;;;;;;15.07;6.35;;;;;;;;;;5113732;28;20360;-67
2021/11/26 10:58:53;;;;;;;12.45;6.40;;;;;;;;;;5096845;28;20047;-72
2021/11/26 11:01:20;;;;;;;15.65;6.00;;;;;;;;;;5112888;28;20577;-65
2021/11/26 11:03:46;;;;;;;10.43;5.97;;;;;;;;;;5096478;28;20046;-62
2021/11/26 11:06:16;;;;;;;10.38;5.63;;;;;;;;;;5093327;28;20086;-74
2021/11/26 11:08:42;;;;;;;10.13;5.82;;;;;;;;;;5074783;28;20036;-71
2021/11/26 11:11:08;;;;;;;10.93;5.80;;;;;;;;;;5093002;28;20024;-74
2021/11/26 11:13:34;;;;;;;10.38;5.40;;;;;;;;;;5091636;28;20020;-70
2021/11/26 11:16:08;;;;;;;10.57;5.57;;;;;;;;;;5100457;28;20020;-71
2021/11/26 11:18:37;;;;;;;10.18;5.22;;;;;;;;;;5113126;28;20391;-73
2021/11/26 11:21:03;;;;;;;10.48;6.03;;;;;;;;;;5093967;28;20058;-73
2021/11/26 11:23:29;;;;;;;10.70;6.05;;;;;;;;;;5113192;28;20517;-73
2021/11/26 11:25:58;;;;;;;11.43;5.78;;;;;;;;;;5112953;28;20417;-75
2021/11/26 11:28:25;;;;;;;11.65;5.43;;;;;;;;;;5112018;28;20023;-71
2021/11/26 11:30:52;;;;;;;12.85;6.63;;;;;;;;;;5112495;28;20028;-67
2021/11/26 11:33:19;;;;;;;12.20;6.93;;;;;;;;;;5094169;28;20387;-63
2021/11/26 11:35:47;;;;;;;12.02;6.20;;;;;;;;;;5112503;28;20028;-72
2021/11/26 11:38:13;;;;;;;12.10;5.32;;;;;;;;;;5074243;28;20020;-69
2021/11/26 11:40:44;;;;;;;9.70;5.13;;;;;;;;;;5092515;28;20025;-71
2021/11/26 11:43:28;;;;;;;10.82;5.10;;;;;;;;;;5092181;28;20048;-69
2021/11/26 11:46:01;;;;;;;10.80;4.75;;;;;;;;;;5092206;28;20016;-72
2021/11/26 11:48:32;;;;;;;13.07;4.75;;;;;;;;;;5092214;28;20028;-69
2021/11/26 11:50:58;;;;;;;13.90;5.93;;;;;;;;;;5092209;28;20027;-64
2021/11/26 11:53:31;;;;;;;13.10;5.68;;;;;;;;;;5092410;28;20367;-72
2021/11/26 11:55:57;;;;;;;;;;;;;;;;;;5092303;28;20024;-73
2021/11/26 11:58:33;;;;;;;13.50;5.32;;;;;;;;;;5091996;28;19957;-73
2021/11/26 12:00:59;;;;;;;10.98;5.68;;;;;;;;;;5096687;28;20024;-70
2021/11/26 12:03:29;;;;;;;10.88;5.40;;;;;;;;;;5111874;28;20027;-72
2021/11/26 12:05:59;;;;;;;17.27;5.88;;;;;;;;;;5112350;28;20023;-67
2021/11/26 12:08:26;;;;;;;12.93;5.90;;;;;;;;;;5112441;28;20066;-69
2021/11/26 12:10:55;;;;;;;16.10;6.13;;;;;;;;;;5102773;28;20035;-74
2021/11/26 12:13:27;;;;;;;15.30;6.72;;;;;;;;;;5091775;28;20012;-68
2021/11/26 12:16:06;;;;;;;21.63;7.13;;;;;;;;;;5091725;28;20035;-68
2021/11/26 12:18:41;;;;;;;22.95;7.40;;;;;;;;;;5102327;28;20024;-74
2021/11/26 12:21:08;;;;;;;15.95;6.75;;;;;;;;;;5106587;28;20039;-69
2021/11/26 12:23:56;;;;;;;16.95;6.38;;;;;;;;;;5093504;28;20024;-74
2021/11/26 12:26:26;;;;;;;14.43;6.93;;;;;;;;;;5102060;28;20016;-74
2021/11/26 12:28:56;;;;;;;19.85;7.28;;;;;;;;;;5091282;28;20480;-68
2021/11/26 12:31:33;;;;;;;17.83;7.20;;;;;;;;;;5092965;28;20034;-65
2021/11/26 12:34:17;;;;;;;17.55;6.57;;;;;;;;;;5112376;28;20055;-65
2021/11/26 12:36:49;;;;;;;16.85;7.40;;;;;;;;;;5112384;28;20468;-68
2021/11/26 12:39:21;;;;;;;15.00;7.15;;;;;;;;;;5112450;28;20016;-65
2021/11/26 12:41:49;;;;;;;18.60;6.85;;;;;;;;;;5112262;28;20466;-74
2021/11/26 12:44:17;;;;;;;14.43;7.07;;;;;;;;;;5102816;28;20051;-70
2021/11/26 12:46:43;;;;;;;17.10;6.22;;;;;;;;;;5093733;28;20028;-74
2021/11/26 12:51:43;;;;;;;13.15;6.55;;;;;;;;;;5112412;28;20424;-67
2021/11/26 12:54:09;;;;;;;18.35;6.13;;;;;;;;;;5093733;28;20023;-74
2021/11/26 12:56:39;;;;;;;23.10;6.30;;;;;;;;;;5111841;28;20454;-74
2021/11/26 12:59:05;;;;;;;12.88;5.85;;;;;;;;;;5093560;28;20647;-70
2021/11/26 13:01:32;;;;;;;14.38;5.70;;;;;;;;;;5111911;28;20028;-73
2021/11/26 13:03:59;;;;;;;12.65;5.70;;;;;;;;;;5093899;28;20020;-76
2021/11/26 13:06:28;;;;;;;10.35;6.03;;;;;;;;;;5114847;28;20088;-75
2021/11/26 13:09:01;;;;;;;11.55;5.93;;;;;;;;;;5114779;28;20489;-67
2021/11/26 13:11:27;;;;;;;12.65;6.53;;;;;;;;;;5112069;28;20078;-68
2021/11/26 13:14:04;;;;;;;10.80;5.97;;;;;;;;;;5111495;28;20016;-74
2021/11/26 13:16:30;;;;;;;10.63;5.57;;;;;;;;;;5111522;28;20309;-72
2021/11/26 13:18:56;;;;;;;11.13;6.10;;;;;;;;;;5109439;28;20021;-71
2021/11/26 13:21:22;;;;;;;13.38;6.00;;;;;;;;;;5090794;28;20360;-68
2021/11/26 13:23:48;;;;;;;11.43;5.30;;;;;;;;;;5111702;28;20047;-76
2021/11/26 13:26:14;;;;;;;10.95;6.10;;;;;;;;;;5111375;28;20030;-74
2021/11/26 13:28:42;;;;;;;18.00;6.40;;;;;;;;;;5100239;28;20451;-69
2021/11/26 13:31:10;;;;;;;10.23;5.40;;;;;;;;;;5107234;28;20379;-75
2021/11/26 13:33:37;;;;;;;11.00;5.68;;;;;;;;;;5111245;28;20441;-75
2021/11/26 13:36:06;;;;;;;9.45;5.30;;;;;;;;;;5111395;28;20028;-73
2021/11/26 13:38:35;;;;;;;11.45;5.95;;;;;;;;;;5114656;28;20031;-70
2021/11/26 13:41:03;;;;;;;10.85;5.60;;;;;;;;;;5097242;28;20201;-72
2021/11/26 13:43:34;;;;;;;10.23;5.97;;;;;;;;;;5115394;28;20046;-68
2021/11/26 13:46:14;;;;;;;9.63;5.88;;;;;;;;;;5097269;28;20023;-70
2021/11/26 13:48:43;;;;;;;13.07;6.40;;;;;;;;;;5115299;28;20024;-69
2021/11/26 13:51:10;;;;;;;11.27;6.53;;;;;;;;;;5103954;28;20031;-64
2021/11/26 13:53:37;;;;;;;8.93;5.43;;;;;;;;;;5114812;28;20078;-73
2021/11/26 13:56:03;;;;;;;10.57;5.93;;;;;;;;;;5097043;28;20023;-67
2021/11/26 13:58:32;;;;;;;9.98;5.70;;;;;;;;;;5115151;28;20596;-71
2021/11/26 14:00:58;;;;;;;10.25;5.38;;;;;;;;;;5115271;28;20043;-68
2021/11/26 14:03:34;;;;;;;13.77;6.07;;;;;;;;;;5115118;28;20366;-66
2021/11/26 14:06:11;;;;;;;12.13;5.53;;;;;;;;;;5115218;28;20047;-69
2021/11/26 14:08:54;;;;;;;9.18;5.28;;;;;;;;;;5096659;28;20030;-74
2021/11/26 14:11:43;;;;;;;8.80;5.43;;;;;;;;;;5114816;28;20065;-69
2021/11/26 14:14:12;;;;;;;11.23;5.68;;;;;;;;;;5114823;28;20464;-64
2021/11/26 14:16:53;;;;;;;11.93;6.07;;;;;;;;;;5114814;28;20031;-72
2021/11/26 14:19:28;;;;;;;11.38;6.13;;;;;;;;;;5110258;28;20024;-70
2021/11/26 14:21:56;;;;;;;11.90;6.22;;;;;;;;;;5115035;28;20386;-72
2021/11/26 14:24:32;;;;;;;10.23;5.88;;;;;;;;;;5115106;28;20023;-77
2021/11/26 14:26:58;;;;;;;9.52;5.32;;;;;;;;;;5114980;28;20051;-66
2021/11/26 14:29:25;;;;;;;8.48;5.10;;;;;;;;;;5101873;28;20067;-69
2021/11/26 14:31:51;;;;;;;10.43;5.95;;;;;;;;;;5121477;28;20080;-73
2021/11/26 14:34:18;;;;;;;8.75;5.47;;;;;;;;;;5114675;28;20108;-70
2021/11/26 14:36:46;;;;;;;8.27;5.45;;;;;;;;;;5114549;28;20046;-75
2021/11/26 14:39:12;;;;;;;8.88;5.65;;;;;;;;;;5114688;28;20114;-72
2021/11/26 14:41:41;;;;;;;9.05;5.30;;;;;;;;;;5114305;28;20020;-69